createdAt,value
2018-07-25T00:00:40.728Z,24.49
2018-07-25T00:04:45.139Z,24.44
2018-07-25T00:08:49.253Z,24.36
2018-07-25T00:12:53.711Z,24.26
2018-07-25T00:16:58.043Z,24.18
2018-07-25T00:21:02.190Z,24.14
2018-07-25T00:25:06.450Z,24.06
2018-07-25T00:29:10.693Z,24.01
2018-07-25T00:33:15.040Z,23.95
2018-07-25T00:37:19.424Z,23.89
2018-07-25T00:41:23.657Z,23.84
2018-07-25T00:45:28.083Z,23.78
2018-07-25T00:49:32.563Z,23.72
2018-07-25T00:53:36.767Z,23.64
2018-07-25T00:57:43.168Z,23.59
2018-07-25T01:01:47.534Z,23.55
2018-07-25T01:05:51.690Z,23.52
2018-07-25T01:09:56.718Z,23.48
2018-07-25T01:14:00.803Z,23.43
2018-07-25T01:18:04.940Z,23.38
2018-07-25T01:22:08.864Z,23.34
2018-07-25T01:26:12.861Z,23.26
2018-07-25T01:30:16.872Z,23.20
2018-07-25T01:34:20.871Z,23.17
2018-07-25T01:38:24.934Z,23.14
2018-07-25T01:42:28.968Z,23.12
2018-07-25T01:46:33.080Z,23.12
2018-07-25T01:50:37.283Z,23.10
2018-07-25T01:54:41.436Z,23.08
2018-07-25T01:58:45.453Z,23.04
2018-07-25T02:02:49.321Z,22.99
2018-07-25T02:06:53.299Z,22.97
2018-07-25T02:10:57.169Z,22.92
2018-07-25T02:15:01.184Z,22.88
2018-07-25T02:19:05.207Z,22.86
2018-07-25T02:23:09.386Z,22.82
2018-07-25T02:27:13.325Z,22.81
2018-07-25T02:31:17.360Z,22.78
2018-07-25T02:35:21.423Z,22.76
2018-07-25T02:39:25.570Z,22.72
2018-07-25T02:43:29.569Z,22.66
2018-07-25T02:47:33.644Z,22.63
2018-07-25T02:51:37.790Z,22.61
2018-07-25T02:55:41.683Z,22.57
2018-07-25T02:59:46.678Z,22.56
2018-07-25T03:03:51.366Z,22.53
2018-07-25T03:07:55.419Z,22.50
2018-07-25T03:11:59.438Z,22.48
2018-07-25T03:16:04.974Z,22.47
2018-07-25T03:20:09.128Z,22.48
2018-07-25T03:24:13.125Z,22.49
2018-07-25T03:28:17.791Z,22.46
2018-07-25T03:32:21.906Z,22.45
2018-07-25T03:36:25.984Z,22.43
2018-07-25T03:40:30.768Z,22.43
2018-07-25T03:44:34.770Z,22.42
2018-07-25T03:48:38.724Z,22.38
2018-07-25T03:52:42.871Z,22.37
2018-07-25T03:56:47.578Z,22.36
2018-07-25T04:00:51.662Z,22.36
2018-07-25T04:04:55.778Z,22.37
2018-07-25T04:08:59.708Z,22.39
2018-07-25T04:13:03.828Z,22.40
2018-07-25T04:17:08.445Z,22.41
2018-07-25T04:21:12.510Z,22.43
2018-07-25T04:25:16.582Z,22.45
2018-07-25T04:29:20.697Z,22.47
2018-07-25T04:33:24.973Z,22.50
2018-07-25T04:37:29.716Z,22.52
2018-07-25T04:41:33.793Z,22.56
2018-07-25T04:45:38.072Z,22.64
2018-07-25T04:49:42.451Z,22.68
2018-07-25T04:53:46.625Z,22.75
2018-07-25T04:57:50.734Z,22.84
2018-07-25T05:01:55.755Z,22.91
2018-07-25T05:05:59.850Z,22.99
2018-07-25T05:10:04.737Z,23.09
2018-07-25T05:14:10.355Z,23.17
2018-07-25T05:18:14.471Z,23.29
2018-07-25T05:22:19.196Z,23.43
2018-07-25T05:26:23.390Z,23.61
2018-07-25T05:30:28.398Z,23.80
2018-07-25T05:34:33.288Z,23.97
2018-07-25T05:38:41.181Z,24.19
2018-07-25T05:42:47.747Z,24.44
2018-07-25T05:46:52.618Z,24.70
2018-07-25T05:50:57.120Z,24.93
2018-07-25T05:55:02.585Z,25.11
2018-07-25T05:59:08.183Z,25.30
2018-07-25T06:03:20.298Z,25.50
2018-07-25T06:07:29.978Z,25.74
2018-07-25T06:11:36.118Z,25.99
2018-07-25T06:24:57.149Z,26.55
2018-07-25T06:33:35.133Z,26.81
2018-07-25T06:37:47.945Z,26.89
2018-07-25T06:41:55.829Z,27.01
2018-07-25T06:46:02.621Z,27.13
2018-07-25T06:50:11.724Z,27.25
2018-07-25T06:54:18.218Z,27.41
2018-07-25T06:58:25.578Z,27.53
2018-07-25T07:02:42.564Z,27.60
2018-07-25T07:06:48.745Z,27.75
2018-07-25T07:21:25.817Z,28.22
2018-07-25T07:25:29.357Z,28.22
2018-07-25T07:29:32.782Z,28.30
2018-07-25T07:33:36.261Z,28.38
2018-07-25T07:37:39.730Z,28.43
2018-07-25T07:41:43.190Z,28.53
2018-07-25T07:45:46.693Z,28.71
2018-07-25T07:49:50.174Z,28.80
2018-07-25T07:53:53.655Z,28.91
2018-07-25T07:57:57.159Z,29.13
2018-07-25T08:02:00.903Z,29.27
2018-07-25T08:06:04.363Z,29.39
2018-07-25T08:10:07.855Z,29.46
2018-07-25T08:14:11.320Z,29.55
2018-07-25T08:18:14.816Z,29.59
2018-07-25T08:22:18.256Z,29.57
2018-07-25T08:26:21.748Z,29.63
2018-07-25T08:30:25.277Z,29.64
2018-07-25T08:34:28.817Z,29.63
2018-07-25T08:38:37.896Z,29.63
2018-07-25T08:42:41.437Z,29.76
2018-07-25T08:46:44.948Z,29.90
2018-07-25T08:50:48.629Z,30.03
2018-07-25T08:54:52.164Z,30.01
2018-07-25T08:58:55.677Z,30.02
2018-07-25T09:02:59.134Z,30.10
2018-07-25T09:07:02.830Z,30.17
2018-07-25T09:11:06.303Z,30.23
2018-07-25T09:15:09.900Z,30.25
2018-07-25T09:19:13.323Z,30.35
2018-07-25T09:23:17.810Z,30.40
2018-07-25T09:27:21.232Z,30.39
2018-07-25T09:31:24.866Z,30.51
2018-07-25T09:35:28.374Z,30.70
2018-07-25T09:39:31.977Z,30.86
2018-07-25T09:43:35.686Z,30.94
2018-07-25T09:47:39.199Z,30.92
2018-07-25T09:51:42.778Z,31.00
2018-07-25T09:55:46.334Z,30.93
2018-07-25T09:59:49.770Z,30.85
2018-07-25T10:03:53.243Z,30.89
2018-07-25T10:07:57.032Z,30.92
2018-07-25T10:12:00.731Z,30.71
2018-07-25T10:16:04.414Z,30.69
2018-07-25T10:20:08.094Z,30.73
2018-07-25T10:24:11.802Z,30.70
2018-07-25T10:28:15.499Z,30.76
2018-07-25T10:32:19.193Z,30.81
2018-07-25T10:36:22.878Z,30.93
2018-07-25T10:40:27.519Z,30.83
2018-07-25T10:44:31.303Z,30.92
2018-07-25T10:48:34.997Z,31.00
2018-07-25T10:52:38.687Z,31.02
2018-07-25T10:56:42.413Z,31.11
2018-07-25T11:00:45.903Z,31.20
2018-07-25T11:04:51.113Z,31.33
2018-07-25T11:08:55.041Z,31.49
2018-07-25T11:12:58.649Z,31.51
2018-07-25T11:17:02.133Z,31.35
2018-07-25T11:21:06.229Z,31.40
2018-07-25T11:25:10.236Z,31.51
2018-07-25T11:29:14.537Z,31.63
2018-07-25T11:33:18.214Z,31.55
2018-07-25T11:37:22.060Z,31.54
2018-07-25T11:41:25.913Z,31.55
2018-07-25T11:45:30.096Z,31.58
2018-07-25T11:49:34.235Z,31.74
2018-07-25T11:53:38.642Z,31.75
2018-07-25T11:57:42.239Z,31.61
2018-07-25T12:01:46.049Z,31.31
2018-07-25T12:05:49.647Z,31.10
2018-07-25T12:09:53.650Z,30.97
2018-07-25T12:13:57.379Z,30.84
2018-07-25T12:18:01.202Z,30.74
2018-07-25T12:26:56.111Z,30.63
2018-07-25T12:30:59.833Z,30.87
2018-07-25T12:35:03.612Z,31.10
2018-07-25T12:39:09.671Z,31.24
2018-07-25T12:43:13.633Z,31.32
2018-07-25T12:47:17.131Z,31.33
2018-07-25T12:51:20.848Z,31.42
2018-07-25T12:55:24.317Z,31.66
2018-07-25T12:59:28.041Z,31.90
2018-07-25T13:03:31.781Z,31.97
2018-07-25T13:07:35.570Z,32.07
2018-07-25T13:11:39.335Z,32.09
2018-07-25T13:15:43.283Z,32.07
2018-07-25T13:19:47.001Z,31.89
2018-07-25T13:23:50.460Z,31.68
2018-07-25T13:27:54.589Z,31.50
2018-07-25T13:31:58.648Z,31.45
2018-07-25T13:36:02.222Z,31.46
2018-07-25T13:40:06.536Z,31.50
2018-07-25T13:44:10.816Z,31.64
2018-07-25T13:48:14.552Z,31.63
2018-07-25T13:52:18.203Z,31.69
2018-07-25T13:56:21.994Z,31.67
2018-07-25T14:00:25.687Z,31.69
2018-07-25T14:04:29.309Z,31.59
2018-07-25T14:08:33.194Z,31.50
2018-07-25T14:12:36.860Z,31.38
2018-07-25T14:16:40.558Z,31.26
2018-07-25T14:20:44.685Z,31.21
2018-07-25T14:24:48.369Z,31.19
2018-07-25T14:28:52.142Z,31.19
2018-07-25T14:32:55.787Z,31.17
2018-07-25T14:36:59.446Z,31.04
2018-07-25T14:41:03.193Z,30.86
2018-07-25T14:45:07.146Z,30.71
2018-07-25T14:49:10.843Z,30.59
2018-07-25T14:53:14.557Z,30.60
2018-07-25T14:57:18.760Z,30.69
2018-07-25T15:01:22.562Z,30.72
2018-07-25T15:05:26.209Z,30.71
2018-07-25T15:20:35.512Z,30.47
2018-07-25T15:24:42.615Z,30.08
2018-07-25T15:33:36.117Z,29.82
2018-07-25T15:42:29.214Z,29.77
2018-07-25T15:51:16.182Z,29.79
2018-07-25T15:55:30.525Z,29.81
2018-07-25T15:59:39.397Z,29.87
2018-07-25T16:03:43.523Z,29.94
2018-07-25T18:22:11.077Z,29.98
2018-07-25T18:26:14.703Z,26.11
2018-07-25T18:30:18.202Z,25.96
2018-07-25T18:34:21.691Z,25.88
2018-07-25T18:38:25.169Z,25.83
2018-07-25T18:42:28.663Z,25.83
2018-07-25T18:46:32.355Z,25.83
2018-07-25T18:50:35.833Z,25.81
2018-07-25T18:54:39.310Z,25.77
2018-07-25T18:58:42.793Z,25.75
2018-07-25T19:02:46.239Z,25.73
2018-07-25T19:06:49.778Z,25.68
2018-07-25T19:10:53.239Z,25.62
2018-07-25T19:15:01.995Z,25.55
2018-07-25T19:19:05.443Z,25.49
2018-07-25T19:23:08.884Z,25.44
2018-07-25T19:27:12.336Z,25.36
2018-07-25T19:31:15.763Z,25.31
2018-07-25T19:35:19.258Z,25.23
2018-07-25T19:39:22.733Z,25.13
2018-07-25T19:43:26.204Z,25.07
2018-07-25T19:47:29.679Z,24.94
2018-07-25T19:51:33.187Z,24.86
2018-07-25T19:55:36.619Z,24.79
2018-07-25T19:59:40.197Z,24.69
2018-07-25T20:03:43.627Z,24.61
2018-07-25T20:07:47.069Z,24.54
2018-07-25T20:11:50.545Z,24.48
2018-07-25T20:15:57.318Z,24.41
2018-07-25T20:20:00.775Z,24.34
2018-07-25T20:24:04.270Z,24.24
2018-07-25T20:28:07.722Z,24.14
2018-07-25T20:32:11.327Z,24.05
2018-07-25T20:36:14.823Z,23.93
2018-07-25T20:40:18.298Z,23.81
2018-07-25T20:44:21.883Z,23.68
2018-07-25T20:48:25.415Z,23.64
2018-07-25T20:52:28.879Z,23.58
2018-07-25T20:56:32.338Z,23.54
2018-07-25T21:00:36.756Z,23.52
2018-07-25T21:04:40.160Z,23.49
2018-07-25T21:08:43.663Z,23.46
2018-07-25T21:12:47.088Z,23.41
2018-07-25T21:16:50.553Z,23.37
2018-07-25T21:20:54.003Z,23.31
2018-07-25T21:24:57.455Z,23.24
2018-07-25T21:29:00.922Z,23.18
2018-07-25T21:33:04.387Z,23.13
2018-07-25T21:37:07.837Z,23.08
2018-07-25T21:41:11.312Z,22.99
2018-07-25T21:45:14.770Z,22.93
2018-07-25T21:49:18.187Z,22.92
2018-07-25T21:53:22.674Z,22.91
2018-07-25T21:57:26.143Z,22.90
2018-07-25T22:01:29.582Z,22.92
2018-07-25T22:05:33.042Z,22.93
2018-07-25T22:09:36.471Z,22.94
2018-07-25T22:13:44.079Z,22.93
2018-07-25T22:17:47.524Z,22.92
2018-07-25T22:21:51.050Z,22.92
2018-07-25T22:25:54.524Z,22.90
2018-07-25T22:29:57.988Z,22.88
2018-07-25T22:34:01.410Z,22.87
2018-07-25T22:38:05.038Z,22.84
2018-07-25T22:42:08.502Z,22.82
2018-07-25T22:46:11.934Z,22.79
2018-07-25T22:50:15.362Z,22.79
2018-07-25T22:54:18.843Z,22.78
2018-07-25T22:58:22.309Z,22.75
2018-07-25T23:02:25.752Z,22.74
2018-07-25T23:06:29.290Z,22.73
2018-07-25T23:10:32.746Z,22.70
2018-07-25T23:14:36.325Z,22.67
2018-07-25T23:18:39.770Z,22.65
2018-07-25T23:22:55.090Z,22.64
2018-07-25T23:26:58.558Z,22.61
2018-07-25T23:31:02.067Z,22.59
2018-07-25T23:35:05.818Z,22.53
2018-07-25T23:39:10.437Z,22.47
2018-07-25T23:43:13.905Z,22.46
2018-07-25T23:47:17.358Z,22.44
2018-07-25T23:51:20.766Z,22.42
2018-07-25T23:55:24.226Z,22.42
2018-07-25T23:59:27.646Z,22.42
